Time;durP1;ratioP1;P1;durP2;ratioP2;P2;SDS_P1;SDS_P2;PMS_P1;PMS_P2;Temp;Humidity;BMP_temperature;BMP_pressure;BME280_temperature;BME280_humidity;BME280_pressure;Samples;Min_cycle;Max_cycle;Signal;HPM_P1;HPM_P2
2022/06/14 05:00:10;;;;;;;6.10;5.30;;;17.50;97.20;;;;;;1714817;28;20184;-69
2022/06/14 05:01:07;;;;;;;6.70;4.93;;;17.60;97.20;;;;;;1714715;28;20733;-69
2022/06/14 05:02:03;;;;;;;5.47;4.97;;;17.60;97.20;;;;;;1714669;28;20206;-69
2022/06/14 05:03:00;;;;;;;5.85;5.28;;;17.60;97.20;;;;;;1714650;28;20700;-69
2022/06/14 05:03:59;;;;;;;6.55;4.70;;;17.60;97.20;;;;;;1714652;28;20201;-69
2022/06/14 05:04:54;;;;;;;5.55;5.00;;;17.60;97.20;;;;;;1714641;28;20202;-71
2022/06/14 05:05:50;;;;;;;7.10;4.90;;;17.60;97.20;;;;;;1714605;28;20206;-69
2022/06/14 05:06:45;;;;;;;8.30;4.72;;;17.70;97.20;;;;;;1714467;28;20205;-69
2022/06/14 05:07:43;;;;;;;6.53;4.20;;;17.70;97.20;;;;;;1715079;28;20229;-69
2022/06/14 05:08:37;;;;;;;5.53;4.95;;;17.70;97.20;;;;;;1721217;28;20221;-69
2022/06/14 05:09:35;;;;;;;7.43;5.18;;;17.70;97.20;;;;;;1721261;28;20208;-69
2022/06/14 05:10:31;;;;;;;6.10;5.40;;;17.70;97.20;;;;;;1721444;28;20208;-69
2022/06/14 05:11:27;;;;;;;8.30;4.90;;;17.70;97.20;;;;;;1721371;28;20201;-69
2022/06/14 05:12:23;;;;;;;8.10;5.88;;;17.70;97.20;;;;;;1721387;28;20206;-69
2022/06/14 05:13:22;;;;;;;6.75;5.45;;;17.70;97.20;;;;;;1721387;28;20820;-69
2022/06/14 05:14:17;;;;;;;6.88;5.15;;;17.80;97.20;;;;;;1721243;28;20216;-69
2022/06/14 05:15:17;;;;;;;6.20;5.60;;;17.80;97.20;;;;;;1721218;28;20205;-69
2022/06/14 05:16:11;;;;;;;10.90;6.38;;;17.80;97.20;;;;;;1721205;28;20568;-69
2022/06/14 05:17:08;;;;;;;10.57;6.22;;;17.80;97.20;;;;;;1720995;28;20316;-69
2022/06/14 05:18:04;;;;;;;6.57;5.88;;;17.80;97.20;;;;;;1721201;28;20210;-69
2022/06/14 05:19:03;;;;;;;12.10;6.07;;;17.80;97.20;;;;;;1721204;28;20701;-71
2022/06/14 05:20:01;;;;;;;6.88;5.45;;;17.80;97.20;;;;;;1716603;28;20204;-71
2022/06/14 05:20:57;;;;;;;8.65;6.13;;;17.80;97.20;;;;;;1714648;28;20206;-69
2022/06/14 05:21:54;;;;;;;8.45;6.65;;;17.80;97.20;;;;;;1714562;28;20201;-69
2022/06/14 05:22:50;;;;;;;9.27;6.38;;;17.90;97.20;;;;;;1714659;28;20202;-69
2022/06/14 05:23:46;;;;;;;9.25;6.47;;;17.90;97.20;;;;;;1714546;28;20616;-69
2022/06/14 05:24:38;;;;;;;8.77;6.40;;;17.90;97.20;;;;;;1714611;28;20213;-69
2022/06/14 05:25:41;;;;;;;6.65;5.95;;;17.90;97.20;;;;;;1714477;28;20290;-69
2022/06/14 05:26:49;;;;;;;8.07;6.05;;;17.90;97.20;;;;;;1714472;28;20210;-69
2022/06/14 05:27:47;;;;;;;9.70;6.70;;;18.00;97.20;;;;;;1714449;28;20206;-69
2022/06/14 05:28:46;;;;;;;9.52;7.20;;;18.00;97.20;;;;;;1714464;28;20241;-69
2022/06/14 05:29:48;;;;;;;8.25;6.82;;;18.00;97.20;;;;;;1714095;28;20688;-69
2022/06/14 05:30:48;;;;;;;12.40;6.68;;;18.00;97.20;;;;;;1714447;28;20206;-69
2022/06/14 05:31:46;;;;;;;9.00;6.68;;;18.00;97.20;;;;;;1714463;28;20206;-69
2022/06/14 05:32:44;;;;;;;10.50;7.25;;;18.10;97.20;;;;;;1714595;28;20285;-69
2022/06/14 05:33:45;;;;;;;9.65;7.20;;;18.00;97.20;;;;;;1714366;28;20206;-69
2022/06/14 05:34:45;;;;;;;9.25;6.57;;;18.10;97.20;;;;;;1719324;28;20571;-69
2022/06/14 05:35:42;;;;;;;12.63;7.90;;;18.10;97.20;;;;;;1721171;28;20703;-69
2022/06/14 05:36:42;;;;;;;10.20;7.07;;;18.10;97.20;;;;;;1720822;28;20558;-69
2022/06/14 05:37:42;;;;;;;8.45;6.80;;;18.10;97.20;;;;;;1721099;28;20201;-69
2022/06/14 05:38:40;;;;;;;7.97;7.13;;;18.10;97.20;;;;;;1721029;28;20232;-69
2022/06/14 05:39:38;;;;;;;10.57;6.85;;;18.10;97.20;;;;;;1720728;28;20213;-69
2022/06/14 05:40:33;;;;;;;11.63;7.47;;;18.10;97.20;;;;;;1720933;28;20205;-69
2022/06/14 05:41:32;;;;;;;12.40;7.20;;;18.20;97.20;;;;;;1721099;28;20252;-69
2022/06/14 05:42:29;;;;;;;9.18;6.88;;;18.20;97.20;;;;;;1721093;28;20300;-69
2022/06/14 05:43:28;;;;;;;12.40;7.55;;;18.20;97.20;;;;;;1721080;28;20223;-69
2022/06/14 05:44:24;;;;;;;12.23;7.95;;;18.20;97.20;;;;;;1721057;28;20216;-69
2022/06/14 05:45:21;;;;;;;9.73;8.10;;;18.30;97.20;;;;;;1721006;28;20658;-69
2022/06/14 05:46:20;;;;;;;8.70;6.65;;;18.30;97.20;;;;;;1720939;28;20201;-69
2022/06/14 05:47:15;;;;;;;11.82;7.97;;;18.30;97.20;;;;;;1720749;28;20209;-69
2022/06/14 05:48:10;;;;;;;12.13;7.32;;;18.30;97.20;;;;;;1720926;28;20708;-69
2022/06/14 05:49:05;;;;;;;12.80;7.40;;;18.30;97.20;;;;;;1716565;28;20190;-69
2022/06/14 05:50:02;;;;;;;8.55;6.93;;;18.30;97.20;;;;;;1714414;28;20212;-69
2022/06/14 05:50:56;;;;;;;8.23;6.40;;;18.30;97.20;;;;;;1714351;28;20229;-69
2022/06/14 05:51:50;;;;;;;9.15;6.90;;;18.30;97.20;;;;;;1714475;28;20206;-69
2022/06/14 05:52:47;;;;;;;7.85;6.20;;;18.40;97.20;;;;;;1714396;28;20249;-70
2022/06/14 05:53:42;;;;;;;9.55;6.60;;;18.40;97.20;;;;;;1714482;28;20586;-69
2022/06/14 05:54:39;;;;;;;9.43;6.97;;;18.40;97.20;;;;;;1714453;28;20237;-69
2022/06/14 05:55:35;;;;;;;7.68;6.28;;;18.40;97.20;;;;;;1714407;28;20596;-69
2022/06/14 05:56:33;;;;;;;12.50;8.02;;;18.40;97.20;;;;;;1714558;28;20800;-69
2022/06/14 05:57:29;;;;;;;10.52;7.20;;;18.40;97.20;;;;;;1714419;28;20206;-70
2022/06/14 05:58:26;;;;;;;8.93;6.53;;;18.50;97.20;;;;;;1714142;28;20224;-69
2022/06/14 05:59:24;;;;;;;11.40;6.57;;;18.50;97.20;;;;;;1714329;28;20285;-69
2022/06/14 06:00:20;;;;;;;10.52;6.93;;;18.50;97.20;;;;;;1714175;28;20208;-69
2022/06/14 06:01:17;;;;;;;11.13;7.07;;;18.50;97.20;;;;;;1714390;28;20217;-70
2022/06/14 06:02:17;;;;;;;11.63;7.50;;;18.60;97.20;;;;;;1714334;28;20205;-69
2022/06/14 06:03:15;;;;;;;7.15;6.45;;;18.60;97.20;;;;;;1715168;28;20209;-69
2022/06/14 06:04:13;;;;;;;9.38;7.15;;;18.60;97.20;;;;;;1721020;28;20284;-69
2022/06/14 06:05:12;;;;;;;10.18;6.45;;;18.60;97.20;;;;;;1721022;28;20212;-69
2022/06/14 06:06:09;;;;;;;11.48;7.30;;;18.70;97.20;;;;;;1720913;28;20209;-69
2022/06/14 06:07:05;;;;;;;10.82;7.50;;;18.70;97.20;;;;;;1720705;28;20197;-69
2022/06/14 06:08:11;;;;;;;11.00;7.32;;;18.70;97.20;;;;;;1720741;28;20197;-69
2022/06/14 06:09:07;;;;;;;12.13;7.30;;;18.70;97.20;;;;;;1720938;28;20680;-69
2022/06/14 06:10:04;;;;;;;10.00;7.40;;;18.80;97.20;;;;;;1720973;28;20774;-69
2022/06/14 06:11:03;;;;;;;9.93;7.18;;;18.80;97.20;;;;;;1720865;28;20201;-69
2022/06/14 06:11:59;;;;;;;10.02;7.50;;;18.80;97.20;;;;;;1720768;28;20220;-69
2022/06/14 06:12:56;;;;;;;11.00;7.55;;;18.80;97.20;;;;;;1720874;28;20212;-71
2022/06/14 06:13:50;;;;;;;7.65;6.75;;;18.80;97.20;;;;;;1720852;28;20216;-69
2022/06/14 06:14:49;;;;;;;11.07;7.10;;;18.90;97.20;;;;;;1720802;28;20201;-69
2022/06/14 06:15:45;;;;;;;10.93;7.53;;;18.90;97.20;;;;;;1720792;28;20300;-69
2022/06/14 06:16:43;;;;;;;8.63;7.00;;;18.90;97.20;;;;;;1720454;28;20228;-69
2022/06/14 06:17:38;;;;;;;7.30;6.53;;;18.90;97.20;;;;;;1720023;28;20639;-69
2022/06/14 06:18:34;;;;;;;9.63;6.60;;;18.90;97.20;;;;;;1714057;28;20194;-69
2022/06/14 06:19:32;;;;;;;10.55;6.20;;;18.90;97.20;;;;;;1714132;28;20213;-69
2022/06/14 06:20:32;;;;;;;9.45;6.97;;;19.00;97.20;;;;;;1714134;28;20670;-69
2022/06/14 06:21:31;;;;;;;6.47;5.78;;;19.00;97.20;;;;;;1714222;28;20206;-69
2022/06/14 06:22:27;;;;;;;9.07;6.75;;;19.00;97.20;;;;;;1714111;28;20210;-69
2022/06/14 06:23:23;;;;;;;8.48;6.05;;;19.00;97.20;;;;;;1714120;28;20202;-69
2022/06/14 06:24:19;;;;;;;9.40;6.22;;;19.00;97.20;;;;;;1714169;28;20210;-69
2022/06/14 06:25:15;;;;;;;6.65;6.05;;;19.00;97.20;;;;;;1714204;28;20198;-69
2022/06/14 06:26:06;;;;;;;10.02;6.70;;;19.00;97.20;;;;;;1714131;28;20202;-69
2022/06/14 06:27:04;;;;;;;9.57;6.43;;;19.10;97.20;;;;;;1713767;28;20190;-69
2022/06/14 06:28:03;;;;;;;10.15;6.75;;;19.10;97.20;;;;;;1714108;28;20584;-69
2022/06/14 06:28:58;;;;;;;8.68;6.80;;;19.10;97.20;;;;;;1713987;28;20218;-69
2022/06/14 06:29:53;;;;;;;8.60;6.35;;;19.10;97.20;;;;;;1713629;28;20213;-69
2022/06/14 06:30:50;;;;;;;6.40;5.80;;;19.10;97.20;;;;;;1714095;28;20705;-69
2022/06/14 06:31:44;;;;;;;6.90;5.55;;;19.20;97.20;;;;;;1714062;28;20206;-69
2022/06/14 06:32:36;;;;;;;8.65;6.18;;;19.20;97.20;;;;;;1718399;28;20201;-69
2022/06/14 06:33:33;;;;;;;7.43;5.68;;;19.20;97.20;;;;;;1720829;28;20227;-69
2022/06/14 06:34:25;;;;;;;12.85;6.25;;;19.20;97.20;;;;;;1720803;28;20209;-69
2022/06/14 06:35:16;;;;;;;9.45;6.72;;;19.20;97.20;;;;;;1720675;28;20205;-69
2022/06/14 06:36:27;;;;;;;11.03;6.27;;;19.20;97.20;;;;;;1720729;28;20291;-69
2022/06/14 06:37:26;;;;;;;11.70;6.60;;;19.30;97.20;;;;;;1720509;28;20448;-69
2022/06/14 06:38:31;;;;;;;10.13;6.85;;;19.30;97.20;;;;;;1720614;28;20209;-69
2022/06/14 06:39:34;;;;;;;11.82;6.43;;;19.30;97.20;;;;;;1720870;28;20197;-69
2022/06/14 06:40:25;;;;;;;14.85;7.68;;;19.30;97.20;;;;;;1720787;28;20205;-69
2022/06/14 06:42:35;;;;;;;9.10;6.30;;;19.40;97.20;;;;;;1720802;28;20593;-69
2022/06/14 06:43:27;;;;;;;10.13;5.88;;;19.40;97.20;;;;;;1720877;28;20205;-69
2022/06/14 06:44:30;;;;;;;10.70;6.45;;;19.40;97.20;;;;;;1720693;28;20280;-69
2022/06/14 06:45:24;;;;;;;7.00;5.57;;;19.40;97.20;;;;;;1720714;28;20236;-70
2022/06/14 06:46:19;;;;;;;11.15;6.60;;;19.40;97.20;;;;;;1720718;28;20607;-69
2022/06/14 06:47:15;;;;;;;11.18;7.07;;;19.40;97.20;;;;;;1715005;28;20204;-69
2022/06/14 06:48:12;;;;;;;9.63;5.57;;;19.50;97.20;;;;;;1713906;28;20206;-69
2022/06/14 06:49:07;;;;;;;8.85;6.47;;;19.50;97.20;;;;;;1719576;28;20197;-69
2022/06/14 06:50:07;;;;;;;9.80;5.95;;;19.50;97.20;;;;;;1720721;28;20571;-69
2022/06/14 06:51:05;;;;;;;8.32;5.30;;;19.50;97.20;;;;;;1720645;28;20205;-69
2022/06/14 06:52:00;;;;;;;11.50;6.25;;;19.50;97.20;;;;;;1720664;28;20288;-71
2022/06/14 06:53:02;;;;;;;8.82;5.53;;;19.60;97.20;;;;;;1720747;28;20193;-72
2022/06/14 06:54:02;;;;;;;11.73;6.07;;;19.60;97.20;;;;;;1720706;28;20201;-70
2022/06/14 06:55:01;;;;;;;12.55;5.85;;;19.60;97.20;;;;;;1720692;28;20644;-69
2022/06/14 06:55:57;;;;;;;6.82;5.30;;;19.60;97.20;;;;;;1720676;28;20206;-69
2022/06/14 06:56:53;;;;;;;7.80;6.00;;;19.60;97.20;;;;;;1720429;28;20201;-70
2022/06/14 06:57:47;;;;;;;9.20;6.30;;;19.70;97.20;;;;;;1720738;28;20201;-69
2022/06/14 06:58:44;;;;;;;7.82;5.82;;;19.70;97.20;;;;;;1720554;28;20690;-69
2022/06/14 06:59:39;;;;;;;7.80;6.00;;;19.70;97.20;;;;;;1720661;28;20229;-70
2022/06/14 07:00:32;;;;;;;8.25;5.72;;;19.70;97.20;;;;;;1720609;28;20207;-71
2022/06/14 07:01:27;;;;;;;10.93;6.20;;;19.80;97.20;;;;;;1717639;28;20208;-72
2022/06/14 07:02:26;;;;;;;8.57;5.88;;;19.80;97.20;;;;;;1713983;28;20204;-69
2022/06/14 07:03:26;;;;;;;11.90;6.63;;;19.80;97.20;;;;;;1714060;28;20210;-69
2022/06/14 07:05:02;;;;;;;8.82;6.40;;;19.80;97.20;;;;;;1713983;28;20205;-70
2022/06/14 07:05:31;;;;;;;10.65;6.25;;;19.80;97.20;;;;;;1713905;28;20212;-69
2022/06/14 07:06:28;;;;;;;10.80;6.53;;;19.80;97.20;;;;;;1713873;28;20202;-69
2022/06/14 07:07:23;;;;;;;9.30;6.10;;;19.90;97.20;;;;;;1713781;28;20210;-69
2022/06/14 07:08:20;;;;;;;8.10;5.70;;;19.90;97.20;;;;;;1713698;28;20240;-69
2022/06/14 07:09:15;;;;;;;7.00;5.22;;;19.90;97.20;;;;;;1713920;28;20206;-69
2022/06/14 07:10:18;;;;;;;9.05;5.65;;;19.90;97.20;;;;;;1714037;28;20647;-69
2022/06/14 07:11:16;;;;;;;10.15;6.10;;;20.00;97.20;;;;;;1714000;28;20206;-69
2022/06/14 07:12:13;;;;;;;7.50;5.30;;;20.00;97.20;;;;;;1713985;28;20206;-69
2022/06/14 07:13:15;;;;;;;14.07;6.32;;;20.00;97.20;;;;;;1714019;28;20217;-69
2022/06/14 07:14:10;;;;;;;8.48;5.55;;;20.00;97.20;;;;;;1713995;28;20590;-69
2022/06/14 07:15:06;;;;;;;10.63;5.65;;;20.00;97.20;;;;;;1714036;28;20208;-69
2022/06/14 07:16:05;;;;;;;8.05;5.80;;;20.00;97.20;;;;;;1716829;28;20201;-69
2022/06/14 07:17:03;;;;;;;11.43;6.00;;;20.00;97.20;;;;;;1720292;28;20233;-69
2022/06/14 07:18:02;;;;;;;9.73;5.75;;;20.00;97.20;;;;;;1720548;28;20571;-69
2022/06/14 07:19:02;;;;;;;8.35;6.13;;;20.10;97.20;;;;;;1720481;28;20232;-69
2022/06/14 07:19:59;;;;;;;8.02;5.40;;;20.10;97.20;;;;;;1720632;28;20567;-69
2022/06/14 07:20:59;;;;;;;11.23;6.00;;;20.10;97.20;;;;;;1720601;28;20201;-69
2022/06/14 07:21:54;;;;;;;10.93;6.30;;;20.10;97.20;;;;;;1720625;28;20204;-70
2022/06/14 07:22:53;;;;;;;7.65;5.00;;;20.20;97.20;;;;;;1720563;28;20197;-69
2022/06/14 07:23:49;;;;;;;10.20;5.18;;;20.20;97.20;;;;;;1720652;28;20208;-69
2022/06/14 07:24:53;;;;;;;9.10;5.45;;;20.20;97.20;;;;;;1720642;28;20716;-69
2022/06/14 07:25:53;;;;;;;11.13;4.75;;;20.20;97.20;;;;;;1720659;28;20209;-69
2022/06/14 07:26:49;;;;;;;6.70;4.95;;;20.30;97.20;;;;;;1720304;28;20208;-69
2022/06/14 07:27:46;;;;;;;10.82;4.90;;;20.30;97.20;;;;;;1720590;28;20808;-69
2022/06/14 07:28:47;;;;;;;9.20;5.10;;;20.30;97.20;;;;;;1720451;28;20588;-69
2022/06/14 07:29:43;;;;;;;8.10;5.28;;;20.30;97.20;;;;;;1719926;28;20233;-69
2022/06/14 07:30:40;;;;;;;7.40;5.53;;;20.30;97.20;;;;;;1716241;28;20633;-69
2022/06/14 07:31:38;;;;;;;7.55;4.95;;;20.40;97.20;;;;;;1720627;28;20217;-69
2022/06/14 07:32:34;;;;;;;8.13;5.20;;;20.40;97.20;;;;;;1720566;28;20208;-69
2022/06/14 07:33:29;;;;;;;7.70;5.10;;;20.40;97.20;;;;;;1720654;28;20244;-69
2022/06/14 07:34:21;;;;;;;8.50;4.97;;;20.40;97.20;;;;;;1720534;28;20224;-69
2022/06/14 07:35:12;;;;;;;9.55;4.90;;;20.40;97.20;;;;;;1720508;28;20232;-69
2022/06/14 07:36:16;;;;;;;11.02;5.53;;;20.40;97.20;;;;;;1720495;28;20660;-69
2022/06/14 07:37:15;;;;;;;9.52;4.72;;;20.40;97.20;;;;;;1720294;28;20209;-70
2022/06/14 07:38:16;;;;;;;7.50;5.80;;;20.50;97.20;;;;;;1720565;28;20228;-69
2022/06/14 07:39:14;;;;;;;7.28;4.85;;;20.50;97.20;;;;;;1720561;28;20202;-69
2022/06/14 07:40:15;;;;;;;6.43;5.65;;;20.50;97.20;;;;;;1720612;28;20280;-70
2022/06/14 07:41:14;;;;;;;8.93;5.22;;;20.50;97.20;;;;;;1720600;28;20280;-69
2022/06/14 07:42:12;;;;;;;9.02;5.25;;;20.50;97.20;;;;;;1720705;28;20601;-70
2022/06/14 07:43:11;;;;;;;6.82;5.18;;;20.60;97.20;;;;;;1720509;28;20228;-69
2022/06/14 07:44:10;;;;;;;7.20;4.82;;;20.60;97.20;;;;;;1720504;28;20577;-70
2022/06/14 07:45:05;;;;;;;12.75;5.15;;;20.60;97.20;;;;;;1717372;28;20221;-70
2022/06/14 07:46:02;;;;;;;7.45;6.07;;;20.60;97.20;;;;;;1713801;28;20198;-69
2022/06/14 07:47:00;;;;;;;6.30;4.82;;;20.70;97.20;;;;;;1713579;28;20213;-69
2022/06/14 07:47:56;;;;;;;6.70;5.00;;;20.70;97.20;;;;;;1713807;28;20198;-70
2022/06/14 07:48:55;;;;;;;6.88;5.25;;;20.70;97.20;;;;;;1713703;28;20760;-70
2022/06/14 07:49:55;;;;;;;10.93;5.47;;;20.70;97.20;;;;;;1713861;28;20225;-70
2022/06/14 07:50:50;;;;;;;8.77;5.85;;;20.70;97.20;;;;;;1713943;28;20209;-69
2022/06/14 07:51:47;;;;;;;7.45;5.10;;;20.80;97.20;;;;;;1714766;28;20194;-69
2022/06/14 07:52:46;;;;;;;7.15;5.10;;;20.70;97.20;;;;;;1720628;28;20665;-69
2022/06/14 07:53:42;;;;;;;7.75;5.22;;;20.80;97.20;;;;;;1720519;28;20205;-69
2022/06/14 07:54:38;;;;;;;7.60;5.50;;;20.80;97.20;;;;;;1720551;28;20735;-69
2022/06/14 07:55:37;;;;;;;9.05;4.65;;;20.80;97.20;;;;;;1720647;28;20206;-70
2022/06/14 07:56:34;;;;;;;6.80;4.88;;;20.80;97.20;;;;;;1720480;28;20735;-70
2022/06/14 07:57:30;;;;;;;6.07;4.75;;;20.80;97.20;;;;;;1720542;28;20607;-69
2022/06/14 07:58:26;;;;;;;6.57;5.10;;;20.90;97.20;;;;;;1720356;28;20201;-69
2022/06/14 07:59:22;;;;;;;6.38;4.72;;;20.90;97.20;;;;;;1719287;28;20202;-69
2022/06/14 08:01:32;;;;;;;6.43;4.97;;;20.90;97.20;;;;;;1713913;28;20201;-70
2022/06/14 08:02:32;;;;;;;9.07;5.43;;;20.90;97.20;;;;;;1713823;28;20206;-70
2022/06/14 08:03:28;;;;;;;8.38;5.57;;;20.90;97.20;;;;;;1714607;28;20206;-70
2022/06/14 08:04:27;;;;;;;5.43;4.53;;;21.00;97.20;;;;;;1715129;28;20217;-70
2022/06/14 08:05:21;;;;;;;7.45;4.65;;;21.00;97.20;;;;;;1715032;28;20202;-69
2022/06/14 08:06:17;;;;;;;9.02;6.57;;;21.00;97.20;;;;;;1714928;28;20210;-69
2022/06/14 08:07:11;;;;;;;9.45;8.15;;;21.00;97.20;;;;;;1714807;28;20206;-69
2022/06/14 08:08:05;;;;;;;8.55;7.70;;;21.00;97.20;;;;;;1714958;28;20212;-69
2022/06/14 08:09:04;;;;;;;7.97;5.75;;;21.00;97.20;;;;;;1714848;28;20720;-69
2022/06/14 08:09:58;;;;;;;8.73;7.82;;;21.10;97.20;;;;;;1714977;28;20233;-69
2022/06/14 08:10:53;;;;;;;15.07;6.30;;;21.10;97.20;;;;;;1714891;28;20288;-69
2022/06/14 08:11:49;;;;;;;8.68;5.10;;;21.10;97.20;;;;;;1715078;28;20205;-69
2022/06/14 08:12:45;;;;;;;9.05;7.50;;;21.10;97.20;;;;;;1714983;28;20202;-69
2022/06/14 08:13:43;;;;;;;9.10;6.60;;;21.10;97.20;;;;;;1715013;28;20693;-69
2022/06/14 08:14:42;;;;;;;7.75;4.43;;;21.20;97.20;;;;;;1713015;28;20281;-69
2022/06/14 08:15:37;;;;;;;6.13;4.85;;;21.20;97.20;;;;;;1715078;28;20206;-69
2022/06/14 08:16:29;;;;;;;6.20;5.13;;;21.20;97.20;;;;;;1714932;28;20321;-69
2022/06/14 08:17:26;;;;;;;7.60;4.57;;;21.20;97.20;;;;;;1714682;28;20193;-69
2022/06/14 08:18:22;;;;;;;8.70;5.13;;;21.20;97.20;;;;;;1714841;28;20210;-69
2022/06/14 08:19:19;;;;;;;7.00;5.20;;;21.20;97.20;;;;;;1715041;28;20697;-69
2022/06/14 08:20:24;;;;;;;5.78;5.05;;;21.20;97.20;;;;;;1715021;28;20202;-69
2022/06/14 08:21:20;;;;;;;10.88;8.85;;;21.20;97.20;;;;;;1714892;28;20202;-69
2022/06/14 08:22:16;;;;;;;11.02;5.97;;;21.30;97.20;;;;;;1714999;28;20206;-69
2022/06/14 08:23:13;;;;;;;8.48;6.60;;;21.30;97.20;;;;;;1714908;28;20210;-69
2022/06/14 08:24:10;;;;;;;8.43;6.45;;;21.30;97.20;;;;;;1714981;28;20204;-69
2022/06/14 08:25:05;;;;;;;10.95;5.10;;;21.30;97.20;;;;;;1714939;28;20205;-69
2022/06/14 08:26:09;;;;;;;9.85;6.15;;;21.30;97.20;;;;;;1714808;28;20201;-69
2022/06/14 08:27:05;;;;;;;12.70;9.15;;;21.30;97.20;;;;;;1714561;28;20206;-69
2022/06/14 08:28:04;;;;;;;6.57;5.47;;;21.40;97.20;;;;;;1714760;28;20205;-69
2022/06/14 08:29:01;;;;;;;9.02;4.63;;;21.40;97.20;;;;;;1720488;28;20282;-69
2022/06/14 08:29:58;;;;;;;8.07;4.22;;;21.40;97.20;;;;;;1720834;28;20205;-69
2022/06/14 08:30:57;;;;;;;7.70;4.22;;;21.40;97.20;;;;;;1721607;28;20239;-69
2022/06/14 08:31:53;;;;;;;11.88;4.28;;;21.40;97.20;;;;;;1721598;28;20580;-69
2022/06/14 08:32:51;;;;;;;10.07;5.15;;;21.40;97.20;;;;;;1721629;28;20197;-69
2022/06/14 08:33:48;;;;;;;6.70;4.53;;;21.40;97.20;;;;;;1721565;28;20232;-69
2022/06/14 08:34:45;;;;;;;9.02;6.10;;;21.40;97.20;;;;;;1721643;28;20197;-69
2022/06/14 08:35:42;;;;;;;6.35;4.80;;;21.50;97.20;;;;;;1721486;28;20232;-69
2022/06/14 08:36:40;;;;;;;7.18;4.10;;;21.50;97.20;;;;;;1718095;28;20296;-69
2022/06/14 08:37:43;;;;;;;6.18;4.10;;;21.50;97.20;;;;;;1714957;28;20208;-69
2022/06/14 08:38:40;;;;;;;11.07;4.95;;;21.50;97.20;;;;;;1714690;28;20712;-69
2022/06/14 08:39:35;;;;;;;5.45;4.03;;;21.50;97.20;;;;;;1714757;28;20201;-69
2022/06/14 08:40:53;;;;;;;6.68;6.03;;;21.50;97.20;;;;;;1714929;28;20560;-69
2022/06/14 08:41:56;;;;;;;5.75;3.83;;;21.60;97.20;;;;;;1714638;28;20205;-69
2022/06/14 08:42:52;;;;;;;8.25;4.38;;;21.60;97.20;;;;;;1715476;28;20680;-69
2022/06/14 08:43:45;;;;;;;5.38;3.85;;;21.60;97.20;;;;;;1721556;28;20216;-69
2022/06/14 08:44:42;;;;;;;6.20;4.00;;;21.60;97.20;;;;;;1721475;28;20304;-69
2022/06/14 08:45:38;;;;;;;7.05;4.07;;;21.70;97.20;;;;;;1721422;28;20409;-69
2022/06/14 08:46:39;;;;;;;6.70;3.85;;;21.70;97.20;;;;;;1721360;28;20205;-69
2022/06/14 08:47:52;;;;;;;7.20;4.35;;;21.70;97.20;;;;;;1721421;28;20206;-69
2022/06/14 08:48:51;;;;;;;7.03;3.70;;;21.80;97.20;;;;;;1721337;28;20229;-69
2022/06/14 08:49:53;;;;;;;6.63;3.95;;;21.80;97.20;;;;;;1721478;28;20247;-69
2022/06/14 08:51:12;;;;;;;4.47;3.83;;;21.80;97.20;;;;;;1721524;28;20208;-69
2022/06/14 08:52:31;;;;;;;7.05;4.82;;;21.90;97.20;;;;;;1721503;28;20201;-69
2022/06/14 08:54:03;;;;;;;6.10;3.47;;;21.90;97.20;;;;;;1721205;28;20228;-69
2022/06/14 08:55:18;;;;;;;5.95;3.50;;;22.00;97.20;;;;;;1721447;28;20579;-69
2022/06/14 08:56:19;;;;;;;4.35;3.45;;;22.00;97.20;;;;;;1721279;28;20205;-69
2022/06/14 08:57:31;;;;;;;8.75;3.83;;;22.00;97.20;;;;;;1720821;28;20669;-69
2022/06/14 08:58:42;;;;;;;6.03;4.25;;;22.10;97.20;;;;;;1707940;28;20217;-69
2022/06/14 08:59:49;;;;;;;6.38;3.80;;;22.10;97.20;;;;;;1708103;28;20277;-70
2022/06/14 09:00:54;;;;;;;5.93;4.40;;;22.20;97.20;;;;;;1708074;28;20689;-69
2022/06/14 09:02:14;;;;;;;8.18;6.07;;;22.20;97.20;;;;;;1708125;28;20203;-69
2022/06/14 09:03:41;;;;;;;7.15;4.40;;;22.20;97.20;;;;;;1707895;28;20578;-69
2022/06/14 09:04:58;;;;;;;8.63;7.60;;;22.30;97.20;;;;;;1707996;28;20207;-70
2022/06/14 09:06:03;;;;;;;14.55;13.30;;;22.30;97.20;;;;;;1707990;28;20218;-69
2022/06/14 09:07:12;;;;;;;7.60;5.50;;;22.40;97.20;;;;;;1707741;28;20210;-69
2022/06/14 09:08:33;;;;;;;7.60;4.57;;;22.40;97.20;;;;;;1708028;28;20199;-70
2022/06/14 09:10:18;;;;;;;6.28;4.15;;;22.40;97.20;;;;;;1700453;29;20238;-69
2022/06/14 09:11:45;;;;;;;5.15;3.70;;;22.50;97.20;;;;;;1693896;29;20211;-69
2022/06/14 09:12:55;;;;;;;4.70;3.33;;;22.50;97.20;;;;;;1693167;29;20219;-70
2022/06/14 09:14:12;;;;;;;7.18;3.20;;;22.50;97.20;;;;;;1706525;28;20205;-69
2022/06/14 09:15:32;;;;;;;4.53;2.90;;;22.50;97.20;;;;;;1713875;28;20622;-69
2022/06/14 09:16:54;;;;;;;8.30;4.10;;;22.60;97.20;;;;;;1714468;28;20232;-69
2022/06/14 09:18:07;;;;;;;7.10;3.80;;;22.60;97.20;;;;;;1714572;28;20229;-69
2022/06/14 09:19:08;;;;;;;4.70;3.40;;;22.60;97.20;;;;;;1714403;28;20237;-69
2022/06/14 09:20:02;;;;;;;6.10;3.97;;;22.60;97.20;;;;;;1714518;28;20596;-69
2022/06/14 09:21:23;;;;;;;8.23;3.47;;;22.70;97.20;;;;;;1714496;28;20204;-69
2022/06/14 09:22:38;;;;;;;5.20;3.15;;;22.70;97.20;;;;;;1714633;28;20691;-70
2022/06/14 09:23:44;;;;;;;4.43;3.25;;;22.80;97.20;;;;;;1714566;28;20209;-69
2022/06/14 09:24:54;;;;;;;6.32;4.25;;;22.80;97.20;;;;;;1714509;28;20202;-69
2022/06/14 09:26:21;;;;;;;6.63;3.30;;;22.80;97.20;;;;;;1714482;28;20205;-69
2022/06/14 09:27:26;;;;;;;5.45;3.33;;;22.90;97.20;;;;;;1707615;28;20213;-70
2022/06/14 09:28:45;;;;;;;4.35;3.33;;;22.90;97.20;;;;;;1707692;28;20222;-69
2022/06/14 09:30:02;;;;;;;7.45;3.70;;;23.00;97.20;;;;;;1707006;29;20659;-70
2022/06/14 09:31:14;;;;;;;4.32;3.25;;;23.00;97.20;;;;;;1707794;29;20218;-70
2022/06/14 09:34:05;;;;;;;7.03;4.13;;;23.10;97.20;;;;;;1707620;28;20190;-69
2022/06/14 09:35:13;;;;;;;6.50;3.40;;;23.10;97.20;;;;;;1707807;29;20662;-69
2022/06/14 09:36:47;;;;;;;8.02;3.75;;;23.20;97.20;;;;;;1707765;29;20206;-69
2022/06/14 09:38:03;;;;;;;4.55;2.80;;;23.20;97.20;;;;;;1696678;28;20212;-69
2022/06/14 09:39:27;;;;;;;3.65;3.22;;;23.20;97.20;;;;;;1707627;28;20222;-69
2022/06/14 09:40:33;;;;;;;7.25;3.78;;;23.30;97.20;;;;;;1707725;29;20568;-69
2022/06/14 09:41:35;;;;;;;7.15;2.97;;;23.20;97.20;;;;;;1718882;28;20661;-69
2022/06/14 09:42:57;;;;;;;8.45;3.28;;;23.20;97.20;;;;;;1721147;28;20216;-69
2022/06/14 09:44:09;;;;;;;3.60;3.03;;;23.30;97.20;;;;;;1721109;28;20209;-69
2022/06/14 09:45:28;;;;;;;3.65;2.83;;;23.30;97.20;;;;;;1720651;28;20611;-69
2022/06/14 09:46:52;;;;;;;3.53;2.78;;;23.30;97.20;;;;;;1700361;29;20226;-69
2022/06/14 09:48:22;;;;;;;8.50;3.15;;;23.30;97.20;;;;;;1714303;28;20198;-69
2022/06/14 09:50:07;;;;;;;6.28;3.13;;;23.40;97.20;;;;;;1714379;28;20209;-70
2022/06/14 09:51:31;;;;;;;4.65;3.10;;;23.40;97.20;;;;;;1700228;29;20214;-69
2022/06/14 09:53:02;;;;;;;5.18;3.28;;;23.50;97.20;;;;;;1700289;29;20215;-70
2022/06/14 09:54:24;;;;;;;5.70;3.20;;;23.50;97.20;;;;;;1711880;28;20209;-70
2022/06/14 09:55:44;;;;;;;5.10;3.35;;;23.50;97.20;;;;;;1714324;28;20218;-69
2022/06/14 09:57:07;;;;;;;5.90;2.75;;;23.60;97.20;;;;;;1720717;28;20201;-70
2022/06/14 09:58:23;;;;;;;5.68;3.17;;;23.60;97.20;;;;;;1714078;28;20661;-70
2022/06/14 09:59:35;;;;;;;3.53;3.15;;;23.60;97.20;;;;;;1721007;28;20595;-69
2022/06/14 10:00:38;;;;;;;8.02;4.00;;;23.60;97.20;;;;;;1721044;28;20233;-69
2022/06/14 10:01:38;;;;;;;6.07;3.15;;;23.70;97.20;;;;;;1721012;28;20206;-70
2022/06/14 10:02:42;;;;;;;4.75;3.00;;;23.70;97.20;;;;;;1721015;28;20196;-70
2022/06/14 10:04:03;;;;;;;6.03;3.60;;;23.70;97.20;;;;;;1720926;28;20205;-69
2022/06/14 10:05:19;;;;;;;6.95;3.13;;;23.70;97.20;;;;;;1720795;28;20234;-70
2022/06/14 10:06:48;;;;;;;5.32;3.25;;;23.80;97.20;;;;;;1706696;29;20206;-70
2022/06/14 10:08:03;;;;;;;4.00;3.00;;;23.80;97.20;;;;;;1719233;28;20241;-70
2022/06/14 10:09:09;;;;;;;4.18;3.25;;;23.80;97.20;;;;;;1720924;28;20221;-70
2022/06/14 10:10:20;;;;;;;5.97;2.65;;;23.90;97.20;;;;;;1718513;28;20811;-70
2022/06/14 10:11:32;;;;;;;3.47;2.95;;;23.90;97.20;;;;;;1714280;28;20666;-70
2022/06/14 10:12:51;;;;;;;4.07;2.92;;;23.90;97.20;;;;;;1714242;28;20221;-69
2022/06/14 10:14:03;;;;;;;2.67;2.40;;;24.00;97.20;;;;;;1714218;28;20202;-70
2022/06/14 10:15:02;;;;;;;4.50;2.80;;;24.00;97.20;;;;;;1714304;28;20654;-70
2022/06/14 10:16:00;;;;;;;4.20;2.50;;;24.00;97.20;;;;;;1713681;28;20208;-69
2022/06/14 10:17:24;;;;;;;3.53;3.20;;;24.00;97.20;;;;;;1713641;28;20213;-70
2022/06/14 10:18:30;;;;;;;4.82;2.97;;;24.10;97.20;;;;;;1713878;28;20202;-70
2022/06/14 10:19:38;;;;;;;7.07;3.75;;;24.10;97.20;;;;;;1707511;29;20226;-70
2022/06/14 10:20:38;;;;;;;3.22;2.83;;;24.10;97.20;;;;;;1707552;28;20234;-70
2022/06/14 10:21:39;;;;;;;7.03;3.60;;;24.20;97.20;;;;;;1707490;28;20293;-70
2022/06/14 10:22:40;;;;;;;5.15;2.83;;;24.20;97.20;;;;;;1710816;28;20199;-70
2022/06/14 10:23:56;;;;;;;6.10;2.95;;;24.20;97.20;;;;;;1714171;28;20206;-69